sensor_id;sensor_type;location;lat;lon;timestamp;pressure;altitude;pressure_sealevel;temperature;humidity
77723;BME280;66890;42.656;23.394;2023-02-01T00:02:02;95155.13;;;0.35;73.66
77723;BME280;66890;42.656;23.394;2023-02-01T00:04:33;95152.88;;;0.31;74.06
77723;BME280;66890;42.656;23.394;2023-02-01T00:07:03;95150.16;;;0.32;73.93
77723;BME280;66890;42.656;23.394;2023-02-01T00:09:34;95148.84;;;0.38;73.97
77723;BME280;66890;42.656;23.394;2023-02-01T00:12:05;95153.00;;;0.40;73.50
77723;BME280;66890;42.656;23.394;2023-02-01T00:14:37;95154.06;;;0.38;73.36
77723;BME280;66890;42.656;23.394;2023-02-01T00:17:07;95143.16;;;0.33;73.60
77723;BME280;66890;42.656;23.394;2023-02-01T00:19:38;95154.91;;;0.27;73.67
77723;BME280;66890;42.656;23.394;2023-02-01T00:22:09;95153.59;;;0.33;73.20
77723;BME280;66890;42.656;23.394;2023-02-01T00:24:40;95151.38;;;0.17;73.84
77723;BME280;66890;42.656;23.394;2023-02-01T00:27:10;95154.44;;;0.22;73.38
77723;BME280;66890;42.656;23.394;2023-02-01T00:29:42;95151.59;;;0.25;73.19
77723;BME280;66890;42.656;23.394;2023-02-01T00:32:13;95148.38;;;0.21;73.27
77723;BME280;66890;42.656;23.394;2023-02-01T00:34:43;95141.88;;;0.27;72.72
77723;BME280;66890;42.656;23.394;2023-02-01T00:37:14;95141.31;;;0.23;73.35
77723;BME280;66890;42.656;23.394;2023-02-01T00:39:44;95127.44;;;0.23;73.11
77723;BME280;66890;42.656;23.394;2023-02-01T00:42:15;95140.69;;;0.20;73.00
77723;BME280;66890;42.656;23.394;2023-02-01T00:44:47;95129.31;;;0.21;72.59
77723;BME280;66890;42.656;23.394;2023-02-01T00:47:18;95128.97;;;0.25;72.55
77723;BME280;66890;42.656;23.394;2023-02-01T00:49:48;95124.59;;;0.26;71.83
77723;BME280;66890;42.656;23.394;2023-02-01T00:52:19;95124.00;;;0.22;71.28
77723;BME280;66890;42.656;23.394;2023-02-01T00:54:49;95125.66;;;0.23;70.48
77723;BME280;66890;42.656;23.394;2023-02-01T00:57:20;95114.31;;;0.13;70.35
77723;BME280;66890;42.656;23.394;2023-02-01T00:59:52;95118.91;;;0.10;69.65
77723;BME280;66890;42.656;23.394;2023-02-01T01:02:22;95110.41;;;-0.04;70.15
77723;BME280;66890;42.656;23.394;2023-02-01T01:04:53;95115.97;;;-0.08;70.53
77723;BME280;66890;42.656;23.394;2023-02-01T01:07:24;95118.72;;;-0.10;70.49
77723;BME280;66890;42.656;23.394;2023-02-01T01:09:54;95115.16;;;-0.09;70.07
77723;BME280;66890;42.656;23.394;2023-02-01T01:12:25;95126.53;;;-0.10;69.73
77723;BME280;66890;42.656;23.394;2023-02-01T01:14:57;95117.88;;;0.01;69.81
77723;BME280;66890;42.656;23.394;2023-02-01T01:17:27;95115.13;;;0.14;68.61
77723;BME280;66890;42.656;23.394;2023-02-01T01:19:58;95118.34;;;0.17;68.57
77723;BME280;66890;42.656;23.394;2023-02-01T01:22:28;95123.41;;;0.30;69.88
77723;BME280;66890;42.656;23.394;2023-02-01T01:24:59;95125.31;;;0.17;67.95
77723;BME280;66890;42.656;23.394;2023-02-01T01:27:29;95119.50;;;0.24;67.65
77723;BME280;66890;42.656;23.394;2023-02-01T01:30:01;95121.03;;;0.16;67.68
77723;BME280;66890;42.656;23.394;2023-02-01T01:32:32;95120.56;;;0.22;67.09
77723;BME280;66890;42.656;23.394;2023-02-01T01:35:03;95120.47;;;0.23;66.79
77723;BME280;66890;42.656;23.394;2023-02-01T01:37:34;95131.38;;;0.17;66.98
77723;BME280;66890;42.656;23.394;2023-02-01T01:40:07;95126.16;;;0.17;66.99
77723;BME280;66890;42.656;23.394;2023-02-01T01:42:38;95138.94;;;0.20;65.49
77723;BME280;66890;42.656;23.394;2023-02-01T01:45:21;95137.88;;;0.23;65.51
77723;BME280;66890;42.656;23.394;2023-02-01T01:47:53;95140.22;;;0.26;65.74
77723;BME280;66890;42.656;23.394;2023-02-01T01:50:27;95139.66;;;0.22;65.13
77723;BME280;66890;42.656;23.394;2023-02-01T01:53:01;95135.84;;;0.26;65.14
77723;BME280;66890;42.656;23.394;2023-02-01T01:55:35;95137.75;;;0.24;65.19
77723;BME280;66890;42.656;23.394;2023-02-01T01:58:11;95135.38;;;0.21;64.59
77723;BME280;66890;42.656;23.394;2023-02-01T02:00:44;95137.41;;;0.18;65.16
77723;BME280;66890;42.656;23.394;2023-02-01T02:03:19;95128.78;;;0.06;65.58
77723;BME280;66890;42.656;23.394;2023-02-01T02:05:52;95119.19;;;-0.05;65.34
77723;BME280;66890;42.656;23.394;2023-02-01T02:08:25;95130.53;;;-0.17;66.12
77723;BME280;66890;42.656;23.394;2023-02-01T02:10:56;95134.91;;;-0.29;66.13
77723;BME280;66890;42.656;23.394;2023-02-01T02:13:29;95131.00;;;-0.34;66.71
77723;BME280;66890;42.656;23.394;2023-02-01T02:16:20;95126.41;;;-0.42;66.71
77723;BME280;66890;42.656;23.394;2023-02-01T02:22:03;95116.19;;;-0.56;67.81
77723;BME280;66890;42.656;23.394;2023-02-01T02:25:02;95105.06;;;-0.69;68.13
77723;BME280;66890;42.656;23.394;2023-02-01T02:27:48;95108.28;;;-0.66;67.88
77723;BME280;66890;42.656;23.394;2023-02-01T02:30:45;95120.31;;;-0.76;68.28
77723;BME280;66890;42.656;23.394;2023-02-01T02:36:38;95121.84;;;-0.73;67.78
77723;BME280;66890;42.656;23.394;2023-02-01T02:39:18;95126.44;;;-0.77;67.74
77723;BME280;66890;42.656;23.394;2023-02-01T02:41:58;95137.78;;;-0.78;67.93
77723;BME280;66890;42.656;23.394;2023-02-01T02:44:35;95131.44;;;-0.74;67.86
77723;BME280;66890;42.656;23.394;2023-02-01T02:47:13;95126.50;;;-0.66;67.29
77723;BME280;66890;42.656;23.394;2023-02-01T02:49:50;95128.50;;;-0.58;67.43
77723;BME280;66890;42.656;23.394;2023-02-01T02:52:24;95121.88;;;-0.62;67.17
77723;BME280;66890;42.656;23.394;2023-02-01T02:54:56;95119.03;;;-0.59;67.26
77723;BME280;66890;42.656;23.394;2023-02-01T02:57:29;95122.13;;;-0.54;67.21
77723;BME280;66890;42.656;23.394;2023-02-01T03:00:02;95121.41;;;-0.56;67.19
77723;BME280;66890;42.656;23.394;2023-02-01T03:02:34;95118.22;;;-0.48;67.10
77723;BME280;66890;42.656;23.394;2023-02-01T03:05:05;95115.72;;;-0.50;67.30
77723;BME280;66890;42.656;23.394;2023-02-01T03:07:55;95125.09;;;-0.47;67.36
77723;BME280;66890;42.656;23.394;2023-02-01T03:10:35;95128.66;;;-0.48;67.12
77723;BME280;66890;42.656;23.394;2023-02-01T03:13:09;95135.25;;;-0.44;66.84
77723;BME280;66890;42.656;23.394;2023-02-01T03:15:46;95139.16;;;-0.39;65.97
77723;BME280;66890;42.656;23.394;2023-02-01T03:18:25;95139.41;;;-0.31;65.09
77723;BME280;66890;42.656;23.394;2023-02-01T03:20:59;95145.94;;;-0.25;64.71
77723;BME280;66890;42.656;23.394;2023-02-01T03:23:35;95152.31;;;-0.18;64.16
77723;BME280;66890;42.656;23.394;2023-02-01T03:26:11;95152.78;;;-0.24;64.25
77723;BME280;66890;42.656;23.394;2023-02-01T03:28:47;95140.03;;;-0.16;64.12
77723;BME280;66890;42.656;23.394;2023-02-01T03:31:20;95157.31;;;-0.15;64.23
77723;BME280;66890;42.656;23.394;2023-02-01T03:33:50;95144.63;;;-0.19;64.28
77723;BME280;66890;42.656;23.394;2023-02-01T03:36:26;95159.19;;;-0.17;64.36
77723;BME280;66890;42.656;23.394;2023-02-01T03:39:03;95142.63;;;-0.16;64.19
77723;BME280;66890;42.656;23.394;2023-02-01T03:41:37;95161.09;;;-0.19;64.30
77723;BME280;66890;42.656;23.394;2023-02-01T03:44:13;95154.22;;;-0.20;64.61
77723;BME280;66890;42.656;23.394;2023-02-01T03:46:49;95165.81;;;-0.13;64.25
77723;BME280;66890;42.656;23.394;2023-02-01T03:49:25;95150.91;;;-0.11;64.21
77723;BME280;66890;42.656;23.394;2023-02-01T03:51:58;95151.28;;;-0.04;64.10
77723;BME280;66890;42.656;23.394;2023-02-01T03:54:32;95144.28;;;-0.04;64.29
77723;BME280;66890;42.656;23.394;2023-02-01T03:57:06;95153.28;;;-0.08;64.54
77723;BME280;66890;42.656;23.394;2023-02-01T03:59:39;95157.31;;;-0.15;64.69
77723;BME280;66890;42.656;23.394;2023-02-01T04:02:10;95148.31;;;-0.11;64.58
77723;BME280;66890;42.656;23.394;2023-02-01T04:04:41;95150.31;;;-0.14;64.43
77723;BME280;66890;42.656;23.394;2023-02-01T04:07:11;95154.09;;;-0.18;64.68
77723;BME280;66890;42.656;23.394;2023-02-01T04:09:43;95149.63;;;-0.16;64.20
77723;BME280;66890;42.656;23.394;2023-02-01T04:12:14;95132.69;;;-0.11;64.23
77723;BME280;66890;42.656;23.394;2023-02-01T04:14:44;95143.94;;;-0.10;64.55
77723;BME280;66890;42.656;23.394;2023-02-01T04:17:15;95136.13;;;0.01;64.36
77723;BME280;66890;42.656;23.394;2023-02-01T04:19:45;95128.06;;;-0.07;64.16
77723;BME280;66890;42.656;23.394;2023-02-01T04:22:16;95139.78;;;-0.02;64.54
77723;BME280;66890;42.656;23.394;2023-02-01T04:24:48;95139.91;;;-0.03;65.10
77723;BME280;66890;42.656;23.394;2023-02-01T04:27:19;95143.47;;;-0.04;64.87
77723;BME280;66890;42.656;23.394;2023-02-01T04:29:49;95139.41;;;0.03;65.02
77723;BME280;66890;42.656;23.394;2023-02-01T04:32:20;95136.47;;;0.08;65.15
77723;BME280;66890;42.656;23.394;2023-02-01T04:34:50;95134.06;;;0.05;65.68
77723;BME280;66890;42.656;23.394;2023-02-01T04:37:21;95142.97;;;0.13;65.25
77723;BME280;66890;42.656;23.394;2023-02-01T04:39:53;95153.63;;;0.10;65.67
77723;BME280;66890;42.656;23.394;2023-02-01T04:42:24;95145.09;;;0.19;65.42
77723;BME280;66890;42.656;23.394;2023-02-01T04:44:54;95134.66;;;0.19;65.72
77723;BME280;66890;42.656;23.394;2023-02-01T04:47:25;95136.31;;;0.20;65.61
77723;BME280;66890;42.656;23.394;2023-02-01T04:49:56;95141.19;;;0.14;66.20
77723;BME280;66890;42.656;23.394;2023-02-01T04:52:27;95150.31;;;0.19;66.14
77723;BME280;66890;42.656;23.394;2023-02-01T04:54:59;95149.69;;;0.27;66.09
77723;BME280;66890;42.656;23.394;2023-02-01T04:57:30;95145.44;;;0.26;66.80
77723;BME280;66890;42.656;23.394;2023-02-01T05:00:00;95147.34;;;0.24;67.07
77723;BME280;66890;42.656;23.394;2023-02-01T05:02:31;95155.03;;;0.25;67.31
77723;BME280;66890;42.656;23.394;2023-02-01T05:05:02;95162.16;;;0.23;67.29
77723;BME280;66890;42.656;23.394;2023-02-01T05:07:32;95164.97;;;0.32;67.08
77723;BME280;66890;42.656;23.394;2023-02-01T05:10:05;95166.28;;;0.26;68.11
77723;BME280;66890;42.656;23.394;2023-02-01T05:12:36;95171.41;;;0.28;68.58
77723;BME280;66890;42.656;23.394;2023-02-01T05:15:07;95178.47;;;0.25;68.20
77723;BME280;66890;42.656;23.394;2023-02-01T05:17:38;95186.91;;;0.29;68.57
77723;BME280;66890;42.656;23.394;2023-02-01T05:20:10;95181.56;;;0.31;67.90
77723;BME280;66890;42.656;23.394;2023-02-01T05:22:41;95177.78;;;0.23;68.50
77723;BME280;66890;42.656;23.394;2023-02-01T05:25:13;95170.78;;;0.24;68.59
77723;BME280;66890;42.656;23.394;2023-02-01T05:27:44;95180.72;;;0.30;68.66
77723;BME280;66890;42.656;23.394;2023-02-01T05:30:15;95182.88;;;0.25;68.65
77723;BME280;66890;42.656;23.394;2023-02-01T05:32:49;95180.13;;;0.26;68.74
77723;BME280;66890;42.656;23.394;2023-02-01T05:35:20;95189.38;;;0.31;68.77
77723;BME280;66890;42.656;23.394;2023-02-01T05:37:51;95191.38;;;0.38;68.39
77723;BME280;66890;42.656;23.394;2023-02-01T05:40:23;95182.03;;;0.36;68.37
77723;BME280;66890;42.656;23.394;2023-02-01T05:42:53;95182.25;;;0.44;68.13
77723;BME280;66890;42.656;23.394;2023-02-01T05:45:24;95180.72;;;0.41;67.62
77723;BME280;66890;42.656;23.394;2023-02-01T05:47:54;95193.63;;;0.43;68.25
77723;BME280;66890;42.656;23.394;2023-02-01T05:50:25;95180.50;;;0.44;67.98
77723;BME280;66890;42.656;23.394;2023-02-01T05:52:55;95186.41;;;0.46;67.89
77723;BME280;66890;42.656;23.394;2023-02-01T05:55:27;95186.13;;;0.49;67.67
77723;BME280;66890;42.656;23.394;2023-02-01T05:57:58;95176.31;;;0.53;67.24
77723;BME280;66890;42.656;23.394;2023-02-01T06:00:29;95184.84;;;0.55;67.54
77723;BME280;66890;42.656;23.394;2023-02-01T06:02:59;95169.09;;;0.57;67.23
77723;BME280;66890;42.656;23.394;2023-02-01T06:05:30;95180.53;;;0.65;66.56
77723;BME280;66890;42.656;23.394;2023-02-01T06:08:01;95195.13;;;0.68;66.42
77723;BME280;66890;42.656;23.394;2023-02-01T06:10:33;95185.88;;;0.75;66.19
77723;BME280;66890;42.656;23.394;2023-02-01T06:13:04;95181.25;;;0.78;65.80
77723;BME280;66890;42.656;23.394;2023-02-01T06:15:35;95189.75;;;0.81;65.61
77723;BME280;66890;42.656;23.394;2023-02-01T06:18:05;95187.75;;;0.84;65.68
77723;BME280;66890;42.656;23.394;2023-02-01T06:20:36;95191.03;;;0.86;65.30
77723;BME280;66890;42.656;23.394;2023-02-01T06:23:06;95193.53;;;0.88;65.28
77723;BME280;66890;42.656;23.394;2023-02-01T06:25:38;95191.28;;;0.94;64.79
77723;BME280;66890;42.656;23.394;2023-02-01T06:28:09;95189.03;;;0.90;65.24
77723;BME280;66890;42.656;23.394;2023-02-01T06:30:39;95199.34;;;0.91;64.98
77723;BME280;66890;42.656;23.394;2023-02-01T06:33:10;95199.34;;;0.91;65.20
77723;BME280;66890;42.656;23.394;2023-02-01T06:35:41;95197.06;;;0.98;64.54
77723;BME280;66890;42.656;23.394;2023-02-01T06:38:11;95189.94;;;1.00;64.76
77723;BME280;66890;42.656;23.394;2023-02-01T06:40:43;95191.97;;;0.96;64.30
77723;BME280;66890;42.656;23.394;2023-02-01T06:43:14;95197.28;;;1.06;63.99
77723;BME280;66890;42.656;23.394;2023-02-01T06:45:45;95205.44;;;1.13;64.80
77723;BME280;66890;42.656;23.394;2023-02-01T06:48:15;95208.38;;;1.19;63.46
77723;BME280;66890;42.656;23.394;2023-02-01T06:50:46;95205.97;;;1.27;62.71
77723;BME280;66890;42.656;23.394;2023-02-01T06:53:16;95211.44;;;1.24;62.85
77723;BME280;66890;42.656;23.394;2023-02-01T06:55:55;95218.31;;;1.25;62.81
77723;BME280;66890;42.656;23.394;2023-02-01T06:58:28;95221.28;;;1.32;62.62
77723;BME280;66890;42.656;23.394;2023-02-01T07:01:04;95206.31;;;1.34;62.37
77723;BME280;66890;42.656;23.394;2023-02-01T07:03:35;95216.25;;;1.40;61.68
77723;BME280;66890;42.656;23.394;2023-02-01T07:06:06;95215.66;;;1.37;62.21
77723;BME280;66890;42.656;23.394;2023-02-01T07:08:37;95234.13;;;1.45;61.98
77723;BME280;66890;42.656;23.394;2023-02-01T07:11:10;95235.44;;;1.50;61.52
77723;BME280;66890;42.656;23.394;2023-02-01T07:13:41;95231.03;;;1.51;61.33
77723;BME280;66890;42.656;23.394;2023-02-01T07:16:14;95246.59;;;1.41;62.18
77723;BME280;66890;42.656;23.394;2023-02-01T07:18:46;95232.53;;;1.53;61.57
77723;BME280;66890;42.656;23.394;2023-02-01T07:21:17;95237.53;;;1.56;61.29
77723;BME280;66890;42.656;23.394;2023-02-01T07:23:47;95245.50;;;1.55;60.97
77723;BME280;66890;42.656;23.394;2023-02-01T07:26:19;95247.75;;;1.60;61.35
77723;BME280;66890;42.656;23.394;2023-02-01T07:28:50;95247.78;;;1.69;60.54
77723;BME280;66890;42.656;23.394;2023-02-01T07:31:20;95250.97;;;1.73;60.18
77723;BME280;66890;42.656;23.394;2023-02-01T07:33:51;95259.78;;;1.72;60.31
77723;BME280;66890;42.656;23.394;2023-02-01T07:36:22;95253.41;;;1.85;60.48
77723;BME280;66890;42.656;23.394;2023-02-01T07:38:52;95266.84;;;1.81;60.02
77723;BME280;66890;42.656;23.394;2023-02-01T07:41:24;95256.28;;;1.82;60.34
77723;BME280;66890;42.656;23.394;2023-02-01T07:43:55;95261.22;;;1.85;60.21
77723;BME280;66890;42.656;23.394;2023-02-01T07:46:26;95253.97;;;1.89;59.11
77723;BME280;66890;42.656;23.394;2023-02-01T07:48:56;95264.75;;;1.96;59.17
77723;BME280;66890;42.656;23.394;2023-02-01T07:51:27;95276.03;;;1.96;59.43
77723;BME280;66890;42.656;23.394;2023-02-01T07:53:57;95271.50;;;1.98;58.45
77723;BME280;66890;42.656;23.394;2023-02-01T07:56:29;95271.75;;;1.95;59.17
77723;BME280;66890;42.656;23.394;2023-02-01T07:59:00;95271.50;;;1.98;58.98
77723;BME280;66890;42.656;23.394;2023-02-01T08:01:31;95275.50;;;2.02;59.00
77723;BME280;66890;42.656;23.394;2023-02-01T08:04:02;95290.13;;;2.05;59.15
77723;BME280;66890;42.656;23.394;2023-02-01T08:06:33;95281.31;;;2.06;58.49
77723;BME280;66890;42.656;23.394;2023-02-01T08:09:05;95285.19;;;2.11;58.11
77723;BME280;66890;42.656;23.394;2023-02-01T08:11:37;95285.44;;;2.08;57.93
77723;BME280;66890;42.656;23.394;2023-02-01T08:14:08;95287.56;;;2.15;57.81
77723;BME280;66890;42.656;23.394;2023-02-01T08:16:38;95283.41;;;2.12;58.80
77723;BME280;66890;42.656;23.394;2023-02-01T08:19:09;95283.72;;;2.19;58.06
77723;BME280;66890;42.656;23.394;2023-02-01T08:21:39;95261.53;;;2.34;57.49
77723;BME280;66890;42.656;23.394;2023-02-01T08:24:10;95268.69;;;2.42;56.57
77723;BME280;66890;42.656;23.394;2023-02-01T08:26:42;95283.63;;;2.51;56.35
77723;BME280;66890;42.656;23.394;2023-02-01T08:29:12;95271.59;;;2.38;56.33
77723;BME280;66890;42.656;23.394;2023-02-01T08:31:43;95281.16;;;2.49;56.19
77723;BME280;66890;42.656;23.394;2023-02-01T08:34:14;95281.31;;;2.57;56.46
77723;BME280;66890;42.656;23.394;2023-02-01T08:36:44;95282.13;;;2.58;55.98
77723;BME280;66890;42.656;23.394;2023-02-01T08:39:15;95280.78;;;2.63;56.13
77723;BME280;66890;42.656;23.394;2023-02-01T08:41:47;95283.16;;;2.67;55.74
77723;BME280;66890;42.656;23.394;2023-02-01T08:44:17;95281.63;;;2.64;55.74
77723;BME280;66890;42.656;23.394;2023-02-01T08:46:48;95289.50;;;2.74;55.69
77723;BME280;66890;42.656;23.394;2023-02-01T08:49:18;95275.38;;;2.96;55.74
77723;BME280;66890;42.656;23.394;2023-02-01T08:51:49;95279.31;;;3.21;54.05
77723;BME280;66890;42.656;23.394;2023-02-01T08:54:20;95261.84;;;3.50;53.42
77723;BME280;66890;42.656;23.394;2023-02-01T08:56:52;95274.13;;;3.69;52.42
77723;BME280;66890;42.656;23.394;2023-02-01T08:59:23;95271.06;;;4.03;51.60
77723;BME280;66890;42.656;23.394;2023-02-01T09:01:53;95274.16;;;6.26;45.92
77723;BME280;66890;42.656;23.394;2023-02-01T09:04:24;95270.69;;;7.20;43.37
77723;BME280;66890;42.656;23.394;2023-02-01T09:06:55;95261.06;;;7.03;42.63
77723;BME280;66890;42.656;23.394;2023-02-01T09:09:27;95263.53;;;6.70;43.22
77723;BME280;66890;42.656;23.394;2023-02-01T09:11:59;95274.72;;;5.94;44.63
77723;BME280;66890;42.656;23.394;2023-02-01T09:14:30;95276.03;;;5.45;45.52
77723;BME280;66890;42.656;23.394;2023-02-01T09:17:01;95288.88;;;5.20;46.84
77723;BME280;66890;42.656;23.394;2023-02-01T09:19:32;95291.03;;;5.07;49.20
77723;BME280;66890;42.656;23.394;2023-02-01T09:22:02;95293.19;;;4.57;48.35
77723;BME280;66890;42.656;23.394;2023-02-01T09:24:33;95292.78;;;4.52;49.29
77723;BME280;66890;42.656;23.394;2023-02-01T09:27:05;95287.41;;;4.34;49.66
77723;BME280;66890;42.656;23.394;2023-02-01T09:29:36;95275.69;;;4.38;50.02
77723;BME280;66890;42.656;23.394;2023-02-01T09:32:06;95287.81;;;4.39;49.91
77723;BME280;66890;42.656;23.394;2023-02-01T09:34:37;95287.34;;;5.00;48.72
77723;BME280;66890;42.656;23.394;2023-02-01T09:37:07;95270.56;;;5.92;46.63
77723;BME280;66890;42.656;23.394;2023-02-01T09:39:38;95267.56;;;7.25;43.05
77723;BME280;66890;42.656;23.394;2023-02-01T09:42:21;95259.00;;;8.14;40.82
77723;BME280;66890;42.656;23.394;2023-02-01T09:45:03;95271.31;;;7.73;41.38
77723;BME280;66890;42.656;23.394;2023-02-01T09:47:42;95255.00;;;8.59;39.45
77723;BME280;66890;42.656;23.394;2023-02-01T09:50:18;95252.91;;;9.02;38.06
77723;BME280;66890;42.656;23.394;2023-02-01T09:52:55;95255.69;;;9.39;37.78
77723;BME280;66890;42.656;23.394;2023-02-01T09:55:38;95245.06;;;9.16;37.56
77723;BME280;66890;42.656;23.394;2023-02-01T09:58:16;95239.59;;;10.03;35.61
77723;BME280;66890;42.656;23.394;2023-02-01T10:00:52;95233.38;;;10.11;35.79
77723;BME280;66890;42.656;23.394;2023-02-01T10:03:24;95220.94;;;11.01;34.32
77723;BME280;66890;42.656;23.394;2023-02-01T10:09:20;95226.97;;;11.10;33.60
77723;BME280;66890;42.656;23.394;2023-02-01T10:12:04;95228.13;;;10.48;33.39
77723;BME280;66890;42.656;23.394;2023-02-01T10:14:56;95219.19;;;10.12;34.65
77723;BME280;66890;42.656;23.394;2023-02-01T10:17:42;95219.47;;;9.71;35.49
77723;BME280;66890;42.656;23.394;2023-02-01T10:20:20;95216.22;;;9.61;35.66
77723;BME280;66890;42.656;23.394;2023-02-01T10:23:01;95209.06;;;9.92;35.59
77723;BME280;66890;42.656;23.394;2023-02-01T10:25:37;95201.53;;;9.81;35.70
77723;BME280;66890;42.656;23.394;2023-02-01T10:28:14;95190.53;;;8.84;37.51
77723;BME280;66890;42.656;23.394;2023-02-01T10:30:48;95193.88;;;9.09;36.89
77723;BME280;66890;42.656;23.394;2023-02-01T10:33:23;95195.19;;;9.13;36.61
77723;BME280;66890;42.656;23.394;2023-02-01T10:36:00;95183.31;;;9.09;37.52
77723;BME280;66890;42.656;23.394;2023-02-01T10:38:32;95176.97;;;8.40;38.03
77723;BME280;66890;42.656;23.394;2023-02-01T10:41:09;95192.19;;;8.05;38.92
77723;BME280;66890;42.656;23.394;2023-02-01T10:43:43;95197.63;;;7.71;39.75
77723;BME280;66890;42.656;23.394;2023-02-01T10:46:16;95176.41;;;6.90;40.53
77723;BME280;66890;42.656;23.394;2023-02-01T10:48:48;95186.97;;;6.98;42.92
77723;BME280;66890;42.656;23.394;2023-02-01T10:51:22;95182.41;;;7.16;41.98
77723;BME280;66890;42.656;23.394;2023-02-01T10:53:58;95181.41;;;7.17;41.66
77723;BME280;66890;42.656;23.394;2023-02-01T10:56:30;95180.50;;;6.84;41.45
77723;BME280;66890;42.656;23.394;2023-02-01T10:59:02;95173.00;;;6.63;41.49
77723;BME280;66890;42.656;23.394;2023-02-01T11:01:37;95178.31;;;6.71;42.38
77723;BME280;66890;42.656;23.394;2023-02-01T11:04:10;95177.50;;;6.71;42.29
77723;BME280;66890;42.656;23.394;2023-02-01T11:06:44;95176.09;;;7.01;41.92
77723;BME280;66890;42.656;23.394;2023-02-01T11:09:18;95169.69;;;7.03;41.52
77723;BME280;66890;42.656;23.394;2023-02-01T11:11:53;95169.66;;;6.87;41.99
77723;BME280;66890;42.656;23.394;2023-02-01T11:14:34;95169.44;;;6.72;42.56
77723;BME280;66890;42.656;23.394;2023-02-01T11:17:20;95175.16;;;6.59;42.47
77723;BME280;66890;42.656;23.394;2023-02-01T11:19:57;95162.50;;;6.37;42.19
77723;BME280;66890;42.656;23.394;2023-02-01T11:22:29;95175.56;;;6.21;43.26
77723;BME280;66890;42.656;23.394;2023-02-01T11:25:01;95160.84;;;6.02;43.72
77723;BME280;66890;42.656;23.394;2023-02-01T11:27:38;95164.22;;;6.20;44.25
77723;BME280;66890;42.656;23.394;2023-02-01T11:30:15;95163.47;;;6.02;42.97
77723;BME280;66890;42.656;23.394;2023-02-01T11:32:48;95149.88;;;5.89;43.45
77723;BME280;66890;42.656;23.394;2023-02-01T11:35:20;95148.50;;;6.02;43.16
77723;BME280;66890;42.656;23.394;2023-02-01T11:37:55;95147.44;;;6.13;43.47
77723;BME280;66890;42.656;23.394;2023-02-01T11:40:27;95151.44;;;6.25;42.94
77723;BME280;66890;42.656;23.394;2023-02-01T11:43:00;95143.88;;;6.22;42.67
77723;BME280;66890;42.656;23.394;2023-02-01T11:45:32;95143.31;;;6.11;43.29
77723;BME280;66890;42.656;23.394;2023-02-01T11:48:08;95148.09;;;6.15;42.93
77723;BME280;66890;42.656;23.394;2023-02-01T11:50:45;95146.50;;;5.96;43.39
77723;BME280;66890;42.656;23.394;2023-02-01T11:53:28;95145.22;;;6.00;45.04
77723;BME280;66890;42.656;23.394;2023-02-01T11:56:11;95132.31;;;5.89;43.60
77723;BME280;66890;42.656;23.394;2023-02-01T12:02:03;95118.63;;;5.86;43.93
77723;BME280;66890;42.656;23.394;2023-02-01T12:05:13;95121.00;;;5.71;43.88
77723;BME280;66890;42.656;23.394;2023-02-01T12:07:56;95124.59;;;5.70;44.28
77723;BME280;66890;42.656;23.394;2023-02-01T12:10:39;95115.38;;;5.66;44.70
77723;BME280;66890;42.656;23.394;2023-02-01T12:13:22;95112.19;;;5.80;44.36
77723;BME280;66890;42.656;23.394;2023-02-01T12:16:06;95120.31;;;5.69;44.27
77723;BME280;66890;42.656;23.394;2023-02-01T12:18:54;95120.03;;;5.72;44.83
77723;BME280;66890;42.656;23.394;2023-02-01T12:21:41;95121.81;;;5.71;45.13
77723;BME280;66890;42.656;23.394;2023-02-01T12:24:41;95120.75;;;5.56;44.48
77723;BME280;66890;42.656;23.394;2023-02-01T12:28:01;95126.00;;;5.56;45.38
77723;BME280;66890;42.656;23.394;2023-02-01T12:30:54;95113.72;;;5.65;44.84
77723;BME280;66890;42.656;23.394;2023-02-01T12:33:36;95114.91;;;5.70;45.06
77723;BME280;66890;42.656;23.394;2023-02-01T12:36:15;95114.78;;;5.72;45.71
77723;BME280;66890;42.656;23.394;2023-02-01T12:39:00;95114.88;;;5.62;46.38
77723;BME280;66890;42.656;23.394;2023-02-01T12:44:35;95118.84;;;5.66;45.63
77723;BME280;66890;42.656;23.394;2023-02-01T12:47:14;95115.31;;;5.58;45.53
77723;BME280;66890;42.656;23.394;2023-02-01T12:49:55;95120.22;;;5.52;45.97
77723;BME280;66890;42.656;23.394;2023-02-01T12:52:34;95118.72;;;5.50;46.09
77723;BME280;66890;42.656;23.394;2023-02-01T12:55:15;95125.59;;;5.69;45.17
77723;BME280;66890;42.656;23.394;2023-02-01T12:57:50;95112.59;;;5.67;44.92
77723;BME280;66890;42.656;23.394;2023-02-01T13:00:29;95112.50;;;5.77;44.95
77723;BME280;66890;42.656;23.394;2023-02-01T13:03:05;95128.56;;;5.92;45.25
77723;BME280;66890;42.656;23.394;2023-02-01T13:05:48;95116.91;;;5.94;44.32
77723;BME280;66890;42.656;23.394;2023-02-01T13:08:23;95114.66;;;5.99;43.87
77723;BME280;66890;42.656;23.394;2023-02-01T13:11:00;95109.63;;;5.88;44.05
77723;BME280;66890;42.656;23.394;2023-02-01T13:13:42;95105.44;;;5.77;44.43
77723;BME280;66890;42.656;23.394;2023-02-01T13:16:18;95119.50;;;5.68;44.37
77723;BME280;66890;42.656;23.394;2023-02-01T13:18:56;95112.16;;;5.54;43.54
77723;BME280;66890;42.656;23.394;2023-02-01T13:21:33;95113.50;;;5.58;44.17
77723;BME280;66890;42.656;23.394;2023-02-01T13:24:18;95116.72;;;5.70;44.42
77723;BME280;66890;42.656;23.394;2023-02-01T13:26:55;95124.41;;;5.63;43.06
77723;BME280;66890;42.656;23.394;2023-02-01T13:29:28;95118.47;;;5.61;43.13
77723;BME280;66890;42.656;23.394;2023-02-01T13:32:12;95119.00;;;5.47;44.69
77723;BME280;66890;42.656;23.394;2023-02-01T13:41:06;95104.97;;;5.38;42.79
77723;BME280;66890;42.656;23.394;2023-02-01T13:43:47;95107.09;;;5.35;43.24
77723;BME280;66890;42.656;23.394;2023-02-01T13:46:20;95115.97;;;5.34;43.02
77723;BME280;66890;42.656;23.394;2023-02-01T13:48:52;95104.97;;;5.38;43.03
77723;BME280;66890;42.656;23.394;2023-02-01T13:51:42;95116.91;;;5.33;43.22
77723;BME280;66890;42.656;23.394;2023-02-01T13:54:25;95105.66;;;5.40;43.46
77723;BME280;66890;42.656;23.394;2023-02-01T13:56:58;95112.31;;;5.52;43.28